createdAt,value
2023-11-22T00:01:40.683Z,8.47
2023-11-22T00:04:43.303Z,7.50
2023-11-22T00:07:45.574Z,8.40
2023-11-22T00:10:48.153Z,8.30
2023-11-22T00:13:50.566Z,8.27
2023-11-22T00:16:53.244Z,8.00
2023-11-22T00:19:55.250Z,8.03
2023-11-22T00:22:58.241Z,6.83
2023-11-22T00:26:00.365Z,7.53
2023-11-22T00:29:02.799Z,6.53
2023-11-22T00:32:06.131Z,7.50
2023-11-22T00:35:10.386Z,7.43
2023-11-22T00:38:13.367Z,7.40
2023-11-22T00:41:16.246Z,7.30
2023-11-22T00:44:19.663Z,7.40
2023-11-22T00:47:22.291Z,7.30
2023-11-22T00:50:24.358Z,7.13
2023-11-22T00:53:27.006Z,7.10
2023-11-22T00:56:29.132Z,6.70
2023-11-22T00:59:31.517Z,6.37
2023-11-22T01:02:34.056Z,6.70
2023-11-22T01:05:36.782Z,7.67
2023-11-22T01:08:39.082Z,7.50
2023-11-22T01:11:41.773Z,8.00
2023-11-22T01:14:44.091Z,7.00
2023-11-22T01:17:46.927Z,7.40
2023-11-22T01:20:49.222Z,7.07
2023-11-22T01:23:51.688Z,6.77
2023-11-22T01:26:54.006Z,6.17
2023-11-22T01:29:56.654Z,6.53
2023-11-22T01:32:58.673Z,6.67
2023-11-22T01:36:01.002Z,7.03
2023-11-22T01:39:04.861Z,7.73
2023-11-22T01:42:07.850Z,6.60
2023-11-22T01:45:11.527Z,6.33
2023-11-22T01:48:16.136Z,6.60
2023-11-22T01:51:18.565Z,7.60
2023-11-22T01:54:24.277Z,6.77
2023-11-22T01:57:26.330Z,6.80
2023-11-22T02:00:36.637Z,6.40
2023-11-22T02:03:39.067Z,6.87
2023-11-22T02:06:42.392Z,7.37
2023-11-22T02:09:44.274Z,7.10
2023-11-22T02:12:47.074Z,6.90
2023-11-22T02:15:49.147Z,6.37
2023-11-22T02:18:51.832Z,7.63
2023-11-22T02:21:54.152Z,7.27
2023-11-22T02:24:56.929Z,7.63
2023-11-22T02:27:59.187Z,7.47
2023-11-22T02:31:01.804Z,7.43
2023-11-22T02:34:04.110Z,7.40
2023-11-22T02:37:06.943Z,6.37
2023-11-22T02:40:20.384Z,8.03
2023-11-22T02:43:24.652Z,7.30
2023-11-22T02:46:27.570Z,7.27
2023-11-22T02:49:31.039Z,7.00
2023-11-22T02:52:33.498Z,7.47
2023-11-22T02:55:36.100Z,7.37
2023-11-22T02:58:38.436Z,7.87
2023-11-22T03:01:47.209Z,7.90
2023-11-22T03:04:49.641Z,7.60
2023-11-22T03:07:52.433Z,7.43
2023-11-22T03:10:55.365Z,7.87
2023-11-22T03:13:58.014Z,7.33
2023-11-22T03:17:00.342Z,6.83
2023-11-22T03:20:03.169Z,7.10
2023-11-22T03:23:06.213Z,7.73
2023-11-22T03:26:09.274Z,7.83
2023-11-22T03:29:11.588Z,7.43
2023-11-22T03:32:14.430Z,8.83
2023-11-22T03:35:18.271Z,8.73
2023-11-22T03:38:22.436Z,8.67
2023-11-22T03:41:24.605Z,8.13
2023-11-22T03:44:27.206Z,8.87
2023-11-22T03:47:29.455Z,8.30
2023-11-22T03:50:32.079Z,8.00
2023-11-22T03:53:34.160Z,8.17
2023-11-22T03:56:36.589Z,8.87
2023-11-22T03:59:38.895Z,9.57
2023-11-22T04:02:43.411Z,9.00
2023-11-22T04:05:45.866Z,10.03
2023-11-22T04:08:50.790Z,8.93
2023-11-22T04:11:53.315Z,9.63
2023-11-22T04:14:56.050Z,11.10
2023-11-22T04:17:58.411Z,11.83
2023-11-22T04:21:02.351Z,10.57
2023-11-22T04:24:04.645Z,14.90
2023-11-22T04:27:06.981Z,19.53
2023-11-22T04:30:14.496Z,10.33
2023-11-22T04:33:17.488Z,10.37
2023-11-22T04:36:21.483Z,10.30
2023-11-22T04:39:25.364Z,19.43
2023-11-22T04:42:28.944Z,17.37
2023-11-22T04:45:31.159Z,19.33
2023-11-22T04:48:33.287Z,19.40
2023-11-22T04:51:35.947Z,17.70
2023-11-22T04:54:37.982Z,16.70
2023-11-22T04:57:41.218Z,15.07
2023-11-22T05:00:43.407Z,14.87
2023-11-22T05:03:45.812Z,14.17
2023-11-22T05:06:47.832Z,12.80
2023-11-22T05:09:50.106Z,12.30
2023-11-22T05:12:52.190Z,12.47
2023-11-22T05:15:54.843Z,13.30
2023-11-22T05:18:56.848Z,13.40
2023-11-22T05:21:59.521Z,15.70
2023-11-22T05:25:01.815Z,13.03
2023-11-22T05:28:04.898Z,12.33
2023-11-22T05:31:08.079Z,17.00
2023-11-22T05:34:10.497Z,13.43
2023-11-22T05:37:13.482Z,15.67
2023-11-22T05:40:17.491Z,16.37
2023-11-22T05:43:24.019Z,15.40
2023-11-22T05:46:26.597Z,13.87
2023-11-22T05:49:29.884Z,12.97
2023-11-22T05:52:32.487Z,15.10
2023-11-22T05:55:34.488Z,13.60
2023-11-22T05:58:40.487Z,17.83
2023-11-22T06:01:42.463Z,16.30
2023-11-22T06:04:44.934Z,17.20
2023-11-22T06:07:47.274Z,13.50
2023-11-22T06:10:50.184Z,12.40
2023-11-22T06:13:52.920Z,12.43
2023-11-22T06:16:55.443Z,13.70
2023-11-22T06:19:57.633Z,14.87
2023-11-22T06:23:00.316Z,13.97
2023-11-22T06:26:02.642Z,13.60
2023-11-22T06:29:05.273Z,13.07
2023-11-22T06:32:08.069Z,12.93
2023-11-22T06:35:12.654Z,13.33
2023-11-22T06:38:15.078Z,11.03
2023-11-22T06:41:18.583Z,11.67
2023-11-22T06:44:20.759Z,12.57
2023-11-22T06:47:23.363Z,13.30
2023-11-22T06:50:25.870Z,14.77
2023-11-22T06:53:28.371Z,16.87
2023-11-22T06:56:30.777Z,15.57
2023-11-22T06:59:33.180Z,41.13
2023-11-22T07:02:37.463Z,20.43
2023-11-22T07:05:39.840Z,13.80
2023-11-22T07:08:42.360Z,15.67
2023-11-22T07:11:45.697Z,21.27
2023-11-22T07:14:49.880Z,24.10
2023-11-22T07:17:52.557Z,24.17
2023-11-22T07:20:56.297Z,14.80
2023-11-22T07:24:00.660Z,14.37
2023-11-22T07:27:04.005Z,13.97
2023-11-22T07:30:08.640Z,12.73
2023-11-22T07:33:12.195Z,14.17
2023-11-22T07:36:18.216Z,17.47
2023-11-22T07:39:21.524Z,12.93
2023-11-22T07:42:24.702Z,12.90
2023-11-22T07:45:26.859Z,16.00
2023-11-22T07:48:29.444Z,13.73
2023-11-22T07:51:31.456Z,14.10
2023-11-22T07:54:36.866Z,15.67
2023-11-22T07:57:42.715Z,12.17
2023-11-22T08:00:46.719Z,12.07
2023-11-22T08:03:49.298Z,12.67
2023-11-22T08:06:52.859Z,13.17
2023-11-22T08:09:55.272Z,14.77
2023-11-22T08:12:58.927Z,14.83
2023-11-22T08:16:00.898Z,15.13
2023-11-22T08:19:03.557Z,15.53
2023-11-22T08:22:05.493Z,15.63
2023-11-22T08:25:13.757Z,15.17
2023-11-22T08:28:15.819Z,14.10
2023-11-22T08:31:19.555Z,14.60
2023-11-22T08:34:21.851Z,15.03
2023-11-22T08:37:24.188Z,15.77
2023-11-22T08:40:27.467Z,12.27
2023-11-22T08:43:30.488Z,11.23
2023-11-22T08:46:32.954Z,10.33
2023-11-22T08:49:35.993Z,11.87
2023-11-22T08:52:39.766Z,12.20
2023-11-22T08:55:44.392Z,11.60
2023-11-22T08:58:46.680Z,11.97
2023-11-22T09:01:49.300Z,12.40
2023-11-22T09:04:51.554Z,11.93
2023-11-22T09:07:56.958Z,12.40
2023-11-22T09:10:59.323Z,10.70
2023-11-22T09:14:05.999Z,11.70
2023-11-22T09:17:11.289Z,11.33
2023-11-22T09:20:14.886Z,11.50
2023-11-22T09:23:18.155Z,11.73
2023-11-22T09:26:20.860Z,10.77
2023-11-22T09:29:23.090Z,10.40
2023-11-22T09:32:25.415Z,12.90
2023-11-22T09:35:28.017Z,9.00
2023-11-22T09:38:30.777Z,9.80
2023-11-22T09:41:32.806Z,9.07
2023-11-22T09:44:35.442Z,9.13
2023-11-22T09:47:38.458Z,10.23
2023-11-22T09:51:13.188Z,10.47
2023-11-22T09:54:16.572Z,11.37
2023-11-22T09:57:20.840Z,11.07
2023-11-22T10:00:25.463Z,10.27
2023-11-22T10:03:29.856Z,10.03
2023-11-22T10:06:35.723Z,11.80
2023-11-22T10:09:38.980Z,10.20
2023-11-22T10:12:44.165Z,18.17
2023-11-22T10:15:46.854Z,10.13
2023-11-22T10:18:50.472Z,10.40
2023-11-22T10:22:08.293Z,11.03
2023-11-22T10:25:12.181Z,15.50
2023-11-22T10:28:14.906Z,14.13
2023-11-22T10:31:18.204Z,10.80
2023-11-22T10:34:25.929Z,10.30
2023-11-22T10:37:28.766Z,10.67
2023-11-22T10:40:31.344Z,10.23
2023-11-22T10:43:36.217Z,14.60
2023-11-22T10:46:41.340Z,10.90
2023-11-22T10:49:44.703Z,11.50
2023-11-22T10:52:53.605Z,11.57
2023-11-22T10:56:08.121Z,12.03
2023-11-22T10:59:18.873Z,12.57
2023-11-22T11:02:24.866Z,10.23
2023-11-22T11:05:31.715Z,10.53
2023-11-22T11:08:35.323Z,15.50
2023-11-22T11:11:40.396Z,12.03
2023-11-22T11:14:43.393Z,15.07
2023-11-22T11:17:49.255Z,11.00
2023-11-22T11:20:56.722Z,11.73
2023-11-22T11:24:04.127Z,11.50
2023-11-22T11:27:08.357Z,8.60
2023-11-22T11:30:40.337Z,11.83
2023-11-22T11:33:57.382Z,11.67
2023-11-22T11:37:05.322Z,10.60
2023-11-22T11:40:27.868Z,11.90
2023-11-22T11:43:48.102Z,9.70
2023-11-22T11:46:53.237Z,12.73
2023-11-22T11:49:58.345Z,11.43
2023-11-22T11:53:00.722Z,13.10
2023-11-22T11:56:03.861Z,12.90
2023-11-22T11:59:06.235Z,10.63
2023-11-22T12:02:08.851Z,9.63
2023-11-22T12:05:11.240Z,14.83
2023-11-22T12:08:17.019Z,10.97
2023-11-22T12:11:19.739Z,10.77
2023-11-22T12:14:24.221Z,10.70
2023-11-22T12:17:28.913Z,9.30
2023-11-22T12:20:34.466Z,7.60
2023-11-22T12:23:36.712Z,8.43
2023-11-22T12:26:42.906Z,7.70
2023-11-22T12:29:47.541Z,8.63
2023-11-22T12:32:53.894Z,8.63
2023-11-22T12:35:56.126Z,8.60
2023-11-22T12:39:01.873Z,8.57
2023-11-22T12:42:09.579Z,8.73
2023-11-22T12:45:25.445Z,9.30
2023-11-22T12:48:31.453Z,8.40
2023-11-22T12:51:35.332Z,8.37
2023-11-22T12:54:37.390Z,14.93
2023-11-22T12:57:41.396Z,9.63
2023-11-22T13:00:46.281Z,13.27
2023-11-22T13:03:53.282Z,10.73
2023-11-22T13:06:55.504Z,8.93
2023-11-22T13:09:58.013Z,7.97
2023-11-22T13:13:02.188Z,8.27
2023-11-22T13:16:07.223Z,9.40
2023-11-22T13:19:10.508Z,9.40
2023-11-22T13:22:14.127Z,13.57
2023-11-22T13:25:20.327Z,16.80
2023-11-22T13:28:22.676Z,18.23
2023-11-22T13:31:25.561Z,10.43
2023-11-22T13:34:28.183Z,12.00
2023-11-22T13:37:30.443Z,13.80
2023-11-22T13:40:34.983Z,13.50
2023-11-22T13:43:36.983Z,12.67
2023-11-22T13:46:39.670Z,16.13
2023-11-22T13:49:43.732Z,12.07
2023-11-22T13:52:53.966Z,12.83
2023-11-22T13:55:56.720Z,13.17
2023-11-22T13:59:00.664Z,12.13
2023-11-22T14:02:02.632Z,13.30
2023-11-22T14:05:08.840Z,13.73
2023-11-22T14:08:11.116Z,14.00
2023-11-22T14:11:14.292Z,12.60
2023-11-22T14:14:20.426Z,12.20
2023-11-22T14:17:22.901Z,13.53
2023-11-22T14:20:26.044Z,14.77
2023-11-22T14:23:28.412Z,13.73
2023-11-22T14:26:30.475Z,12.63
2023-11-22T14:29:34.522Z,12.27
2023-11-22T14:32:36.708Z,12.43
2023-11-22T14:35:39.301Z,17.77
2023-11-22T14:38:43.808Z,17.37
2023-11-22T14:41:46.969Z,17.77
2023-11-22T14:44:49.751Z,16.83
2023-11-22T14:47:53.308Z,16.60
2023-11-22T14:50:55.872Z,17.20
2023-11-22T14:53:58.207Z,23.87
2023-11-22T14:57:03.148Z,25.80
2023-11-22T15:00:10.853Z,24.60
2023-11-22T15:03:13.291Z,21.47
2023-11-22T15:06:16.771Z,27.10
2023-11-22T15:09:19.476Z,71.40
2023-11-22T15:12:21.810Z,70.37
2023-11-22T15:15:26.732Z,50.83
2023-11-22T15:18:29.447Z,39.43
2023-11-22T15:21:31.559Z,29.20
2023-11-22T15:24:34.267Z,22.90
2023-11-22T15:27:37.525Z,22.87
2023-11-22T15:30:39.909Z,22.73
2023-11-22T15:33:41.942Z,24.27
2023-11-22T15:36:44.322Z,26.33
2023-11-22T15:39:46.401Z,31.57
2023-11-22T15:42:48.681Z,34.00
2023-11-22T15:45:50.958Z,34.43
2023-11-22T15:48:53.536Z,35.57
2023-11-22T15:51:55.498Z,34.00
2023-11-22T15:54:58.436Z,36.17
2023-11-22T15:58:00.316Z,35.40
2023-11-22T16:01:04.983Z,35.87
2023-11-22T16:04:07.319Z,36.17
2023-11-22T16:07:10.605Z,36.33
2023-11-22T16:10:13.091Z,34.97
2023-11-22T16:13:15.717Z,28.17
2023-11-22T16:16:19.338Z,24.23
2023-11-22T16:19:22.143Z,24.20
2023-11-22T16:22:25.331Z,47.27
2023-11-22T16:25:28.514Z,66.37
2023-11-22T16:28:31.962Z,62.03
2023-11-22T16:31:34.505Z,50.60
2023-11-22T16:34:36.849Z,64.80
2023-11-22T16:37:39.860Z,66.03
2023-11-22T16:40:41.986Z,51.73
2023-11-22T16:43:44.607Z,50.13
2023-11-22T16:46:50.901Z,45.00
2023-11-22T16:49:53.663Z,43.07
2023-11-22T16:52:56.035Z,38.10
2023-11-22T16:55:58.978Z,41.67
2023-11-22T16:59:01.278Z,39.90
2023-11-22T17:02:03.903Z,42.00
2023-11-22T17:05:06.608Z,46.37
2023-11-22T17:08:08.988Z,52.30
2023-11-22T17:11:11.280Z,56.43
2023-11-22T17:14:14.144Z,71.13
2023-11-22T17:17:17.058Z,74.83
2023-11-22T17:20:19.419Z,86.47
2023-11-22T17:23:22.702Z,69.90
2023-11-22T17:26:25.240Z,64.73
2023-11-22T17:29:27.336Z,68.63
2023-11-22T17:32:29.700Z,70.83
2023-11-22T17:35:32.322Z,76.63
2023-11-22T17:38:34.636Z,75.47
2023-11-22T17:41:36.951Z,71.33
2023-11-22T17:44:39.572Z,55.33
2023-11-22T17:47:41.951Z,56.57
2023-11-22T17:50:46.019Z,103.63
2023-11-22T17:53:49.012Z,165.00
2023-11-22T17:56:52.161Z,214.20
2023-11-22T17:59:54.669Z,182.03
2023-11-22T18:02:57.472Z,148.90
2023-11-22T18:05:59.816Z,79.07
2023-11-22T18:09:02.153Z,67.90
2023-11-22T18:12:04.970Z,64.53
2023-11-22T18:15:08.355Z,61.70
2023-11-22T18:18:11.415Z,58.03
2023-11-22T18:21:16.679Z,63.53
2023-11-22T18:24:22.490Z,56.90
2023-11-22T18:27:26.109Z,79.43
2023-11-22T18:30:28.116Z,102.30
2023-11-22T18:33:30.594Z,72.93
2023-11-22T18:36:33.219Z,48.70
2023-11-22T18:39:36.926Z,33.53
2023-11-22T18:42:40.080Z,28.67
2023-11-22T18:45:43.473Z,28.30
2023-11-22T18:48:45.791Z,28.33
2023-11-22T18:51:48.602Z,27.10
2023-11-22T18:54:50.905Z,31.40
2023-11-22T18:57:54.377Z,32.83
2023-11-22T19:00:56.796Z,34.07
2023-11-22T19:03:59.463Z,38.07
2023-11-22T19:07:01.789Z,41.33
2023-11-22T19:10:04.325Z,35.07
2023-11-22T19:13:07.569Z,32.93
2023-11-22T19:16:10.132Z,30.33
2023-11-22T19:19:12.164Z,29.47
2023-11-22T19:22:15.542Z,31.67
2023-11-22T19:25:18.921Z,31.57
2023-11-22T19:28:21.557Z,33.40
2023-11-22T19:31:24.833Z,34.33
2023-11-22T19:34:27.404Z,25.50
2023-11-22T19:37:29.732Z,26.03
2023-11-22T19:40:36.015Z,27.30
2023-11-22T19:43:38.362Z,27.70
2023-11-22T19:46:43.331Z,30.13
2023-11-22T19:49:46.170Z,25.53
2023-11-22T19:52:48.510Z,22.20
2023-11-22T19:55:50.614Z,23.87
2023-11-22T19:58:53.317Z,23.83
2023-11-22T20:01:55.420Z,23.27
2023-11-22T20:04:58.214Z,23.90
2023-11-22T20:08:01.659Z,24.70
2023-11-22T20:11:05.240Z,23.10
2023-11-22T20:14:07.637Z,24.03
2023-11-22T20:17:13.371Z,23.23
2023-11-22T20:20:15.870Z,24.63
2023-11-22T20:23:20.712Z,34.37
2023-11-22T20:26:23.847Z,30.80
2023-11-22T20:29:26.284Z,32.00
2023-11-22T20:32:28.279Z,31.77
2023-11-22T20:35:30.897Z,34.00
2023-11-22T20:38:34.329Z,39.93
2023-11-22T20:41:36.786Z,38.80
2023-11-22T20:44:39.090Z,37.00
2023-11-22T20:47:43.314Z,35.83
2023-11-22T20:50:45.761Z,30.63
2023-11-22T20:53:48.364Z,30.23
2023-11-22T20:56:51.271Z,33.63
2023-11-22T20:59:54.300Z,44.97
2023-11-22T21:02:56.732Z,52.40
2023-11-22T21:06:00.292Z,38.67
2023-11-22T21:09:04.751Z,31.07
2023-11-22T21:12:07.697Z,26.20
2023-11-22T21:15:10.446Z,25.00
2023-11-22T21:18:15.564Z,26.27
2023-11-22T21:21:18.211Z,24.77
2023-11-22T21:24:20.861Z,25.53
2023-11-22T21:27:23.204Z,23.57
2023-11-22T21:30:25.794Z,25.53
2023-11-22T21:33:30.122Z,28.83
2023-11-22T21:36:34.417Z,43.43
2023-11-22T21:39:40.524Z,40.30
2023-11-22T21:42:43.207Z,25.53
2023-11-22T21:45:45.635Z,22.33
2023-11-22T21:48:48.499Z,21.40
2023-11-22T21:51:51.939Z,22.17
2023-11-22T21:54:57.499Z,20.70
2023-11-22T21:57:59.805Z,19.17
2023-11-22T22:01:02.290Z,19.70
2023-11-22T22:04:05.878Z,20.23
2023-11-22T22:07:08.822Z,19.80
2023-11-22T22:10:12.071Z,20.63
2023-11-22T22:13:14.579Z,24.70
2023-11-22T22:16:16.893Z,25.07
2023-11-22T22:19:19.568Z,21.67
2023-11-22T22:22:22.626Z,21.77
2023-11-22T22:25:25.498Z,22.03
2023-11-22T22:28:30.529Z,21.87
2023-11-22T22:31:33.172Z,19.43
2023-11-22T22:34:35.516Z,19.83
2023-11-22T22:37:38.960Z,20.03
2023-11-22T22:40:41.681Z,20.03
2023-11-22T22:43:44.278Z,19.03
2023-11-22T22:46:47.626Z,19.40
2023-11-22T22:49:51.434Z,17.27
2023-11-22T22:52:54.187Z,18.00
2023-11-22T22:55:57.140Z,17.90
2023-11-22T22:58:59.425Z,17.70
2023-11-22T23:02:04.692Z,18.53
2023-11-22T23:05:24.835Z,17.17
2023-11-22T23:08:29.218Z,17.50
2023-11-22T23:11:31.221Z,19.10
2023-11-22T23:14:33.991Z,17.00
2023-11-22T23:17:38.060Z,16.80
2023-11-22T23:20:48.940Z,15.73
2023-11-22T23:23:53.279Z,17.30
2023-11-22T23:26:55.948Z,15.73
2023-11-22T23:29:58.288Z,17.50
2023-11-22T23:33:01.141Z,16.60
2023-11-22T23:36:07.342Z,16.60
2023-11-22T23:39:12.076Z,16.90
2023-11-22T23:42:15.321Z,15.30
2023-11-22T23:45:20.717Z,16.07
2023-11-22T23:48:23.079Z,15.70
2023-11-22T23:51:25.778Z,15.83
2023-11-22T23:54:28.067Z,15.63
2023-11-22T23:57:32.158Z,14.93
